Time;durP1;ratioP1;P1;durP2;ratioP2;P2;SDS_P1;SDS_P2;PMS_P1;PMS_P2;Temp;Humidity;BMP_temperature;BMP_pressure;BME280_temperature;BME280_humidity;BME280_pressure;Samples;Min_cycle;Max_cycle;Signal;HPM_P1;HPM_P2
2022/08/26 00:01:16;;;;;;;32.90;13.75;;;;;;;22.81;70.08;101413.22;5046584;28;20024;-59
2022/08/26 00:03:42;;;;;;;29.20;14.57;;;;;;;22.78;69.86;101409.72;5028058;28;20032;-57
2022/08/26 00:06:08;;;;;;;29.90;14.40;;;;;;;22.73;70.35;101404.50;5040854;28;20036;-57
2022/08/26 00:08:34;;;;;;;34.53;13.85;;;;;;;22.70;70.21;101410.75;5048239;28;20075;-57
2022/08/26 00:11:00;;;;;;;28.20;14.13;;;;;;;22.68;69.94;101411.66;5049428;28;20075;-57
2022/08/26 00:13:26;;;;;;;27.60;14.93;;;;;;;22.67;70.41;101409.94;5045586;28;20025;-57
2022/08/26 00:15:52;;;;;;;31.80;15.82;;;;;;;22.61;71.17;101416.22;5048178;28;20037;-57
2022/08/26 00:18:18;;;;;;;36.58;16.30;;;;;;;22.59;70.35;101420.66;5048430;28;20071;-57
2022/08/26 00:20:43;;;;;;;36.25;17.77;;;;;;;22.58;70.23;101416.28;5045281;28;20456;-57
2022/08/26 00:23:09;;;;;;;41.45;18.13;;;;;;;22.54;70.83;101415.44;5043571;28;20115;-57
2022/08/26 00:25:36;;;;;;;40.05;19.58;;;;;;;22.48;71.03;101412.91;5044657;28;20488;-56
2022/08/26 00:28:01;;;;;;;38.67;19.17;;;;;;;22.52;70.60;101416.38;5040546;28;20080;-56
2022/08/26 00:30:28;;;;;;;38.92;20.40;;;;;;;22.52;70.14;101422.56;5040865;28;20061;-56
2022/08/26 00:32:55;;;;;;;48.63;21.27;;;;;;;22.52;70.25;101419.03;5048661;28;20029;-56
2022/08/26 00:35:21;;;;;;;43.47;21.65;;;;;;;22.50;70.92;101432.31;5039550;28;20569;-56
2022/08/26 00:37:47;;;;;;;37.67;20.27;;;;;;;22.47;70.55;101427.06;5047831;28;20068;-56
2022/08/26 00:40:19;;;;;;;46.83;21.58;;;;;;;22.40;70.58;101418.34;5047619;28;20052;-57
2022/08/26 00:42:45;;;;;;;43.13;21.00;;;;;;;22.38;71.24;101421.94;5042145;28;20045;-55
2022/08/26 00:45:10;;;;;;;39.47;20.13;;;;;;;22.36;70.91;101419.28;5047330;28;20043;-56
2022/08/26 00:47:42;;;;;;;52.88;21.77;;;;;;;22.38;70.26;101427.22;5037955;28;20024;-56
2022/08/26 00:50:14;;;;;;;39.65;20.70;;;;;;;22.38;71.14;101436.06;5025222;28;20116;-56
2022/08/26 00:52:40;;;;;;;40.22;19.88;;;;;;;22.41;70.45;101432.50;5043238;28;20028;-56
2022/08/26 00:55:10;;;;;;;46.03;21.67;;;;;;;22.38;70.58;101429.88;5047459;28;20408;-56
2022/08/26 00:57:36;;;;;;;46.05;21.23;;;;;;;22.33;70.97;101421.09;5045622;28;20495;-56
2022/08/26 01:00:08;;;;;;;45.63;21.30;;;;;;;22.32;70.66;101416.66;5047691;28;20033;-56
2022/08/26 01:02:33;;;;;;;49.67;21.90;;;;;;;22.35;71.07;101421.97;5041335;28;20080;-56
2022/08/26 01:05:01;;;;;;;46.15;22.70;;;;;;;22.35;70.96;101428.16;5047201;28;20072;-56
2022/08/26 01:07:29;;;;;;;42.78;22.42;;;;;;;22.33;70.70;101423.75;5046831;28;20032;-56
2022/08/26 01:09:56;;;;;;;45.80;21.73;;;;;;;22.34;70.36;101434.34;5029882;28;20029;-56
2022/08/26 01:12:23;;;;;;;42.28;22.33;;;;;;;22.29;70.92;101430.88;5045577;28;20039;-56
2022/08/26 01:14:49;;;;;;;41.13;20.98;;;;;;;22.31;70.34;101434.38;5046039;28;20079;-59
2022/08/26 01:17:15;;;;;;;43.20;21.58;;;;;;;22.26;71.06;101422.97;5045490;28;20036;-57
2022/08/26 01:19:57;;;;;;;49.25;20.85;;;;;;;22.28;70.93;101426.47;5046625;28;20040;-58
2022/08/26 01:22:50;;;;;;;40.45;21.25;;;;;;;22.25;70.22;101429.16;5044093;28;20513;-57
2022/08/26 01:25:18;;;;;;;38.55;20.25;;;;;;;22.24;70.94;101430.94;5032869;28;20083;-56
2022/08/26 01:27:43;;;;;;;42.92;20.52;;;;;;;22.21;71.17;101424.81;5047022;28;20064;-56
2022/08/26 01:30:10;;;;;;;39.42;20.05;;;;;;;22.20;71.55;101426.59;5041770;28;20053;-56
2022/08/26 01:32:36;;;;;;;42.78;20.40;;;;;;;22.18;71.26;101422.19;5044209;28;20029;-57
2022/08/26 01:35:01;;;;;;;34.75;18.35;;;;;;;22.14;71.78;101415.19;5042554;28;20036;-56
2022/08/26 01:37:33;;;;;;;33.13;18.10;;;;;;;22.10;71.72;101419.69;5045127;28;20037;-57
2022/08/26 01:39:59;;;;;;;32.97;17.08;;;;;;;22.12;71.71;101417.88;5047974;28;20066;-56
2022/08/26 01:42:26;;;;;;;31.52;17.05;;;;;;;22.13;71.90;101424.03;5047003;28;20076;-56
2022/08/26 01:44:56;;;;;;;27.98;15.25;;;;;;;22.11;71.65;101432.03;5044214;28;20116;-56
2022/08/26 01:47:24;;;;;;;27.27;15.73;;;;;;;22.08;71.77;101428.56;5044658;28;20099;-57
2022/08/26 01:49:52;;;;;;;25.63;13.95;;;;;;;22.09;71.86;101431.19;5037953;28;20013;-56
2022/08/26 01:52:22;;;;;;;31.10;14.80;;;;;;;22.10;71.41;101429.41;5045185;28;20472;-56
2022/08/26 01:54:48;;;;;;;21.85;12.77;;;;;;;22.10;71.63;101432.06;5042742;28;20025;-57
2022/08/26 01:57:16;;;;;;;22.45;11.95;;;;;;;22.12;71.13;101432.91;5044310;28;20487;-57
2022/08/26 01:59:41;;;;;;;26.30;12.18;;;;;;;22.12;70.93;101427.63;5046082;28;20029;-57
2022/08/26 02:02:07;;;;;;;20.30;10.30;;;;;;;22.12;70.73;101419.66;5044048;28;20376;-57
2022/08/26 02:04:37;;;;;;;20.20;10.00;;;;;;;22.09;71.48;101427.63;5028288;28;20028;-57
2022/08/26 02:07:06;;;;;;;14.60;8.95;;;;;;;22.10;71.13;101432.06;5044976;28;20028;-57
2022/08/26 02:09:32;;;;;;;;;;;;;;;22.16;69.20;101426.63;5047597;28;20435;-57
2022/08/26 02:12:01;;;;;;;13.65;7.70;;;;;;;22.05;71.20;101425.03;5048038;28;20429;-57
2022/08/26 02:14:34;;;;;;;13.43;7.40;;;;;;;22.03;70.67;101426.84;5048696;28;20025;-57
2022/08/26 02:17:02;;;;;;;12.57;6.78;;;;;;;22.01;71.37;101427.75;5047810;28;20451;-55
2022/08/26 02:19:31;;;;;;;13.90;6.75;;;;;;;21.99;71.53;101432.22;5044622;28;20029;-57
2022/08/26 02:22:00;;;;;;;11.65;6.00;;;;;;;21.97;71.79;101434.91;5047021;28;20013;-57
2022/08/26 02:24:28;;;;;;;12.88;6.03;;;;;;;21.97;71.37;101437.56;5047900;28;20029;-57
2022/08/26 02:26:56;;;;;;;10.35;5.88;;;;;;;21.96;71.29;101438.44;5049927;28;20048;-57
2022/08/26 02:29:25;;;;;;;12.20;5.82;;;;;;;21.91;71.58;101442.94;5047947;28;20040;-57
2022/08/26 02:31:51;;;;;;;13.27;5.35;;;;;;;21.87;71.58;101450.06;5049270;28;20125;-57
2022/08/26 02:34:25;;;;;;;10.77;5.00;;;;;;;21.88;71.13;101454.47;5045200;28;20488;-57
2022/08/26 02:36:51;;;;;;;11.23;4.93;;;;;;;21.85;71.58;101453.63;5044011;28;20035;-57
2022/08/26 02:39:16;;;;;;;11.65;4.63;;;;;;;21.84;71.50;101455.41;5047770;28;20033;-57
2022/08/26 02:41:43;;;;;;;10.68;4.38;;;;;;;21.85;71.56;101464.25;5042690;28;20056;-57
2022/08/26 02:44:08;;;;;;;16.02;4.65;;;;;;;21.84;71.70;101463.38;5049913;28;20546;-56
2022/08/26 02:46:35;;;;;;;10.73;4.30;;;;;;;21.81;71.40;101460.78;5045823;28;20033;-56
2022/08/26 02:49:00;;;;;;;10.02;4.28;;;;;;;21.77;72.35;101458.16;5038369;28;20025;-57
2022/08/26 02:51:26;;;;;;;7.00;3.95;;;;;;;21.77;71.84;101450.19;5045763;28;20024;-56
2022/08/26 02:53:52;;;;;;;8.93;4.10;;;;;;;21.73;71.75;101443.19;5048753;28;20506;-56
2022/08/26 02:56:17;;;;;;;8.65;3.45;;;;;;;21.72;71.86;101450.25;5048456;28;20028;-56
2022/08/26 02:58:43;;;;;;;7.13;3.67;;;;;;;21.69;71.64;101450.31;5050091;28;20058;-57
2022/08/26 03:01:21;;;;;;;9.55;3.50;;;;;;;21.68;71.53;101451.19;5040126;28;20100;-57
2022/08/26 03:03:46;;;;;;;6.20;3.10;;;;;;;21.69;71.64;101452.97;5048159;28;20028;-57
2022/08/26 03:06:11;;;;;;;12.18;4.05;;;;;;;21.65;71.94;101452.13;5045349;28;20253;-53
2022/08/26 03:08:37;;;;;;;9.43;3.20;;;;;;;21.63;71.33;101445.97;5049538;28;20499;-51
2022/08/26 03:11:03;;;;;;;7.43;3.40;;;;;;;21.62;71.90;101445.97;5048110;28;20044;-51
2022/08/26 03:13:29;;;;;;;9.68;3.22;;;;;;;21.60;71.87;101448.66;5049324;28;20100;-53
2022/08/26 03:15:55;;;;;;;6.75;3.08;;;;;;;21.60;71.70;101447.78;5032069;28;20499;-52
2022/08/26 03:18:20;;;;;;;6.63;2.90;;;;;;;21.58;72.05;101446.91;5045792;28;20036;-52
2022/08/26 03:20:45;;;;;;;7.72;3.22;;;;;;;21.56;71.92;101449.59;5044892;28;20021;-52
2022/08/26 03:23:11;;;;;;;8.88;3.33;;;;;;;21.53;72.11;101445.19;5048807;28;20740;-52
2022/08/26 03:25:36;;;;;;;6.22;2.83;;;;;;;21.53;72.38;101444.31;5048892;28;20546;-53
2022/08/26 03:28:02;;;;;;;6.88;3.10;;;;;;;21.48;72.59;101454.94;5049196;28;20557;-53
2022/08/26 03:30:40;;;;;;;8.23;3.20;;;;;;;21.48;72.85;101456.75;5036175;28;20021;-52
2022/08/26 03:33:07;;;;;;;6.20;3.00;;;;;;;21.44;73.13;101457.66;5047197;28;20029;-53
2022/08/26 03:35:33;;;;;;;7.20;3.13;;;;;;;21.44;73.12;101461.19;5046728;28;20029;-52
2022/08/26 03:38:00;;;;;;;8.55;3.08;;;;;;;21.40;73.00;101469.19;5049724;28;20043;-57
2022/08/26 03:40:25;;;;;;;7.32;3.35;;;;;;;21.39;73.28;101462.13;5049725;28;20064;-57
2022/08/26 03:42:52;;;;;;;6.10;2.92;;;;;;;21.38;73.07;101458.63;5047791;28;20152;-57
2022/08/26 03:45:18;;;;;;;6.55;2.80;;;;;;;21.35;73.65;101461.31;5045908;28;20468;-57
2022/08/26 03:47:45;;;;;;;8.13;2.90;;;;;;;21.38;73.21;101466.56;5048930;28;20028;-57
2022/08/26 03:50:13;;;;;;;8.38;3.10;;;;;;;21.37;73.62;101462.16;5044321;28;20040;-57
2022/08/26 03:52:39;;;;;;;7.22;3.25;;;;;;;21.34;73.41;101460.41;5050643;28;20025;-57
2022/08/26 03:55:05;;;;;;;8.63;2.60;;;;;;;21.33;73.58;101461.31;5048065;28;20446;-57
2022/08/26 03:57:31;;;;;;;7.97;2.95;;;;;;;21.34;73.64;101464.84;5049218;28;20033;-57
2022/08/26 03:59:56;;;;;;;6.65;2.80;;;;;;;21.34;72.74;101464.84;5050059;28;20498;-57
2022/08/26 04:02:22;;;;;;;8.88;2.97;;;;;;;21.31;73.55;101471.03;5046481;28;20025;-57
2022/08/26 04:04:47;;;;;;;10.02;3.03;;;;;;;21.31;73.41;101459.56;5033034;28;20037;-57
2022/08/26 04:07:12;;;;;;;7.97;2.70;;;;;;;21.27;73.70;101456.06;5037658;28;20067;-57
2022/08/26 04:09:38;;;;;;;7.13;3.03;;;;;;;21.26;73.63;101464.94;5043549;28;20044;-56
2022/08/26 04:12:04;;;;;;;6.85;3.55;;;;;;;21.21;73.90;101466.75;5043419;28;20539;-59
2022/08/26 04:14:31;;;;;;;8.75;3.40;;;;;;;21.18;73.80;101464.13;5045879;28;20029;-56
2022/08/26 04:16:56;;;;;;;7.28;2.97;;;;;;;21.19;73.94;101465.91;5034746;28;20047;-57
2022/08/26 04:19:23;;;;;;;8.90;3.28;;;;;;;21.15;74.62;101470.34;5038635;28;20024;-57
2022/08/26 04:21:52;;;;;;;9.20;3.78;;;;;;;21.12;74.45;101458.91;5045346;28;20021;-57
2022/08/26 04:24:20;;;;;;;8.23;3.00;;;;;;;21.11;74.35;101457.13;5046500;28;20055;-58
2022/08/26 04:26:46;;;;;;;8.03;3.13;;;;;;;21.13;74.18;101455.34;5048719;28;20031;-57
2022/08/26 04:29:16;;;;;;;7.03;3.03;;;;;;;21.13;74.31;101463.28;5045407;28;20862;-57
2022/08/26 04:31:43;;;;;;;9.02;3.35;;;;;;;21.12;74.72;101453.59;5048858;28;20427;-57
2022/08/26 04:34:09;;;;;;;7.97;3.33;;;;;;;21.11;74.30;101457.13;5039736;28;20021;-57
2022/08/26 04:36:34;;;;;;;8.57;3.22;;;;;;;21.11;74.53;101450.06;5044328;28;20029;-56
2022/08/26 04:39:01;;;;;;;8.05;3.45;;;;;;;21.06;75.00;101453.66;5044917;28;20028;-56
2022/08/26 04:41:27;;;;;;;5.53;3.13;;;;;;;21.12;74.18;101458.91;5045925;28;20341;-57
2022/08/26 04:43:53;;;;;;;7.55;3.10;;;;;;;21.11;75.08;101460.66;5047401;28;20083;-57
2022/08/26 04:46:23;;;;;;;6.53;3.15;;;;;;;21.09;74.56;101458.94;5047033;28;20492;-57
2022/08/26 04:48:51;;;;;;;7.70;3.10;;;;;;;21.06;74.57;101470.44;5045104;28;20041;-57
2022/08/26 04:51:18;;;;;;;9.15;3.63;;;;;;;21.05;75.46;101467.81;5045099;28;21364;-57
2022/08/26 04:53:43;;;;;;;7.30;3.20;;;;;;;21.06;74.46;101464.25;5036554;28;20029;-57
2022/08/26 04:56:09;;;;;;;7.20;3.30;;;;;;;21.04;74.87;101474.84;5044394;28;20479;-57
2022/08/26 04:58:34;;;;;;;6.45;3.10;;;;;;;21.04;74.98;101466.03;5020908;28;20033;-57
2022/08/26 05:01:00;;;;;;;6.32;3.03;;;;;;;21.04;74.96;101466.03;5044718;28;20071;-59
2022/08/26 05:03:26;;;;;;;6.90;3.35;;;;;;;21.01;75.49;101467.84;5046305;28;20055;-57
2022/08/26 05:05:53;;;;;;;8.73;3.10;;;;;;;21.00;75.65;101466.06;5046334;28;20082;-58
2022/08/26 05:08:20;;;;;;;7.18;2.90;;;;;;;20.96;75.30;101469.66;5044698;28;20327;-57
2022/08/26 05:10:49;;;;;;;9.30;3.05;;;;;;;20.98;75.42;101473.16;5047588;28;20036;-57
2022/08/26 05:13:17;;;;;;;5.88;3.05;;;;;;;20.96;76.09;101469.66;5025700;28;20028;-56
2022/08/26 05:15:43;;;;;;;9.27;2.97;;;;;;;20.96;75.95;101474.94;5045174;28;20100;-56
2022/08/26 05:18:09;;;;;;;6.13;3.30;;;;;;;20.94;75.91;101474.09;5045909;28;20094;-57
2022/08/26 05:20:39;;;;;;;7.20;2.80;;;;;;;20.95;75.41;101475.81;5047582;28;20419;-57
2022/08/26 05:23:05;;;;;;;6.30;2.83;;;;;;;20.95;75.49;101473.19;5041459;28;20059;-56
2022/08/26 05:25:30;;;;;;;5.47;3.15;;;;;;;20.96;75.22;101474.94;5048214;28;20060;-57
2022/08/26 05:27:56;;;;;;;5.88;2.92;;;;;;;20.96;75.67;101471.44;5046714;28;20500;-57
2022/08/26 05:30:21;;;;;;;9.93;3.15;;;;;;;20.93;75.91;101474.06;5048757;28;20033;-57
2022/08/26 05:32:48;;;;;;;6.35;3.10;;;;;;;20.92;75.46;101473.22;5045477;28;20025;-57
2022/08/26 05:35:14;;;;;;;7.50;3.47;;;;;;;20.87;76.70;101479.44;5044746;28;20079;-58
2022/08/26 05:37:39;;;;;;;7.78;3.20;;;;;;;20.90;75.94;101479.41;5046052;28;20025;-58
2022/08/26 05:40:05;;;;;;;7.15;3.10;;;;;;;20.89;75.51;101472.38;5044560;28;20406;-57
2022/08/26 05:42:32;;;;;;;7.28;3.20;;;;;;;20.86;76.43;101481.22;5041355;28;20053;-59
2022/08/26 05:44:57;;;;;;;8.13;3.05;;;;;;;20.85;76.26;101487.41;5046742;28;20108;-57
2022/08/26 05:47:24;;;;;;;5.47;2.63;;;;;;;20.89;75.80;101488.28;5039888;28;20155;-59
2022/08/26 05:49:49;;;;;;;5.35;2.63;;;;;;;20.88;76.77;101490.03;5049772;28;20036;-57
2022/08/26 05:52:14;;;;;;;9.80;3.00;;;;;;;20.90;76.05;101490.00;5050145;28;20033;-57
2022/08/26 05:54:41;;;;;;;5.57;2.70;;;;;;;20.87;77.33;101496.22;5048651;28;20131;-57
2022/08/26 05:57:06;;;;;;;8.20;2.78;;;;;;;20.89;76.37;101501.53;5048217;28;20575;-57
2022/08/26 05:59:31;;;;;;;6.30;2.63;;;;;;;20.88;76.42;101503.25;5048233;28;20456;-57
2022/08/26 06:01:57;;;;;;;5.72;2.45;;;;;;;20.83;77.42;101505.97;5050663;28;20035;-57
2022/08/26 06:04:24;;;;;;;5.18;2.50;;;;;;;20.90;76.64;101513.84;5049277;28;20025;-57
2022/08/26 06:06:49;;;;;;;6.22;2.50;;;;;;;20.92;76.49;101514.72;5048431;28;20527;-57
2022/08/26 06:09:14;;;;;;;5.95;2.28;;;;;;;20.91;76.71;101516.47;5048265;28;20036;-58
2022/08/26 06:11:40;;;;;;;7.13;2.35;;;;;;;20.88;76.97;101516.50;5051491;28;20063;-58
2022/08/26 06:14:07;;;;;;;5.63;2.05;;;;;;;20.93;76.26;101527.06;5048747;28;20404;-58
2022/08/26 06:16:37;;;;;;;6.55;2.00;;;;;;;20.94;77.08;101528.81;5049368;28;20111;-58
2022/08/26 06:19:04;;;;;;;4.43;2.00;;;;;;;20.94;75.67;101524.44;5042550;28;20028;-57
2022/08/26 06:21:34;;;;;;;5.38;2.03;;;;;;;20.93;76.76;101522.66;5046047;28;20029;-57
2022/08/26 06:26:50;;;;;;;6.88;2.10;;;;;;;20.96;75.79;101532.38;5049538;28;20125;-58
2022/08/26 06:29:16;;;;;;;5.70;2.40;;;;;;;20.95;76.01;101526.16;5037574;28;20312;-57
2022/08/26 06:31:41;;;;;;;8.10;2.20;;;;;;;20.96;76.18;101533.22;5029736;28;20033;-57
2022/08/26 06:34:07;;;;;;;5.57;1.80;;;;;;;20.97;75.70;101537.66;5048071;28;20382;-57
2022/08/26 06:36:33;;;;;;;5.05;1.85;;;;;;;20.98;76.68;101535.88;5052041;28;20028;-57
2022/08/26 06:39:03;;;;;;;5.60;1.90;;;;;;;20.99;76.26;101540.28;5045214;28;20044;-58
2022/08/26 06:41:30;;;;;;;5.18;2.00;;;;;;;21.01;75.67;101541.13;5047827;28;20513;-58
2022/08/26 06:43:56;;;;;;;5.18;1.55;;;;;;;21.00;75.48;101534.97;5033115;28;20037;-58
2022/08/26 06:46:21;;;;;;;6.50;1.80;;;;;;;21.01;75.55;101538.47;5047471;28;20508;-58
2022/08/26 06:48:47;;;;;;;6.00;1.63;;;;;;;21.02;75.79;101538.47;5048336;28;20412;-57
2022/08/26 06:51:21;;;;;;;5.38;1.60;;;;;;;21.04;74.59;101541.09;5046865;28;20484;-57
2022/08/26 06:53:50;;;;;;;3.33;1.50;;;;;;;21.02;75.98;101540.25;5048326;28;20033;-59
2022/08/26 06:56:20;;;;;;;4.50;1.85;;;;;;;21.05;75.72;101552.59;5043728;28;20039;-57
2022/08/26 06:58:45;;;;;;;4.55;1.70;;;;;;;21.02;75.62;101543.78;5048773;28;20113;-57
2022/08/26 07:01:25;;;;;;;6.63;1.80;;;;;;;21.05;75.50;101550.81;5046199;28;20458;-57
2022/08/26 07:03:53;;;;;;;4.20;1.42;;;;;;;21.09;75.17;101546.38;5048533;28;20508;-57
2022/08/26 07:06:19;;;;;;;6.43;1.90;;;;;;;21.09;75.72;101559.63;5050905;28;20096;-57
2022/08/26 07:08:46;;;;;;;4.25;1.67;;;;;;;21.09;75.16;101549.91;5041093;28;20116;-57
2022/08/26 07:11:11;;;;;;;6.80;1.50;;;;;;;21.12;75.21;101549.88;5040480;28;20028;-57
2022/08/26 07:13:37;;;;;;;6.18;1.80;;;;;;;21.12;76.14;101539.28;5041204;28;20032;-58
2022/08/26 07:16:05;;;;;;;6.07;1.75;;;;;;;21.12;75.93;101539.28;5039841;28;20588;-57
2022/08/26 07:18:31;;;;;;;7.22;2.00;;;;;;;21.14;75.68;101541.91;5044100;28;20025;-57
2022/08/26 07:20:59;;;;;;;5.15;1.80;;;;;;;21.18;75.26;101548.94;5040235;28;20029;-57
2022/08/26 07:23:24;;;;;;;4.80;2.03;;;;;;;21.19;75.97;101550.72;5044918;28;20024;-59
2022/08/26 07:25:49;;;;;;;7.18;2.00;;;;;;;21.19;75.13;101545.41;5043670;28;20029;-57
2022/08/26 07:28:15;;;;;;;3.90;1.70;;;;;;;21.20;75.59;101552.44;5043930;28;20043;-56
2022/08/26 07:30:40;;;;;;;7.15;2.17;;;;;;;21.21;75.28;101553.34;5045478;28;20044;-57
2022/08/26 07:33:07;;;;;;;7.38;1.80;;;;;;;21.21;75.82;101561.28;5039899;28;20094;-57
2022/08/26 07:35:32;;;;;;;7.35;2.03;;;;;;;21.22;75.16;101555.97;5040998;28;20032;-57
2022/08/26 07:37:57;;;;;;;6.60;1.65;;;;;;;21.24;75.60;101559.47;5041371;28;20441;-57
2022/08/26 07:40:23;;;;;;;5.43;1.85;;;;;;;21.28;75.51;101563.00;5023448;28;20025;-57
2022/08/26 07:42:48;;;;;;;5.80;1.48;;;;;;;21.30;74.14;101567.34;5039180;28;20059;-57
2022/08/26 07:45:14;;;;;;;5.00;2.20;;;;;;;21.32;74.74;101562.94;5040679;28;20377;-57
2022/08/26 07:47:40;;;;;;;5.60;1.73;;;;;;;21.35;75.41;101567.34;5048610;28;20112;-57
2022/08/26 07:50:06;;;;;;;5.75;1.70;;;;;;;21.37;74.09;101570.84;5048950;28;20031;-58
2022/08/26 07:52:32;;;;;;;8.93;2.00;;;;;;;21.39;75.19;101569.03;5046997;28;20056;-58
2022/08/26 07:55:00;;;;;;;8.30;2.25;;;;;;;21.42;74.38;101568.16;5029745;28;20485;-58
2022/08/26 07:57:27;;;;;;;8.55;2.70;;;;;;;21.43;74.79;101575.22;5047855;28;20029;-58
2022/08/26 07:59:53;;;;;;;9.38;2.22;;;;;;;21.43;74.29;101580.50;5049859;28;20037;-58
2022/08/26 08:02:18;;;;;;;8.50;2.60;;;;;;;21.46;74.74;101580.47;5046551;28;20075;-58
2022/08/26 08:04:43;;;;;;;7.25;2.55;;;;;;;21.48;73.99;101573.41;5046578;28;20392;-58
2022/08/26 08:07:09;;;;;;;8.82;2.28;;;;;;;21.50;73.97;101582.22;5047328;28;20113;-58
2022/08/26 08:09:34;;;;;;;6.43;2.00;;;;;;;21.51;74.44;101584.88;5050738;28;20426;-57
2022/08/26 08:11:59;;;;;;;8.23;2.55;;;;;;;21.53;74.38;101588.38;5047664;28;20040;-57
2022/08/26 08:14:25;;;;;;;6.95;2.13;;;;;;;21.55;74.97;101583.06;5042247;28;20404;-57
2022/08/26 08:16:50;;;;;;;7.05;2.60;;;;;;;21.54;74.36;101583.97;5050298;28;20025;-57
2022/08/26 08:19:15;;;;;;;6.95;2.33;;;;;;;21.53;73.67;101584.88;5049041;28;20024;-59
2022/08/26 08:21:42;;;;;;;6.13;2.00;;;;;;;21.54;73.41;101583.97;5047879;28;20512;-58
2022/08/26 08:24:10;;;;;;;8.10;2.58;;;;;;;21.52;73.42;101581.34;5048817;28;20037;-58
2022/08/26 08:26:35;;;;;;;8.57;2.17;;;;;;;21.55;73.08;101585.72;5046303;28;20027;-58
2022/08/26 08:29:01;;;;;;;7.05;2.33;;;;;;;21.55;73.28;101583.06;5046969;28;20041;-58
2022/08/26 08:31:29;;;;;;;8.52;2.00;;;;;;;21.58;73.82;101584.81;5048080;28;20111;-58
2022/08/26 08:33:55;;;;;;;7.78;2.10;;;;;;;21.60;73.55;101585.69;5043467;28;20041;-59
2022/08/26 08:36:20;;;;;;;6.90;2.05;;;;;;;21.60;73.24;101593.66;5044746;28;20098;-58
2022/08/26 08:38:46;;;;;;;7.40;2.00;;;;;;;21.62;73.32;101590.06;5040932;28;20030;-59
2022/08/26 08:41:30;;;;;;;6.10;2.15;;;;;;;21.65;72.63;101586.50;5043083;28;20028;-57
2022/08/26 08:43:56;;;;;;;4.93;1.95;;;;;;;21.66;72.20;101591.78;5045832;28;20056;-57
2022/08/26 08:46:22;;;;;;;3.67;1.95;;;;;;;21.69;72.67;101599.72;5045972;28;20030;-57
2022/08/26 08:48:55;;;;;;;6.00;1.90;;;;;;;21.68;72.48;101595.31;5044779;28;20033;-57
2022/08/26 08:51:38;;;;;;;5.10;1.80;;;;;;;21.71;72.21;101582.03;5040572;28;20028;-60
2022/08/26 08:54:05;;;;;;;4.40;1.80;;;;;;;21.75;72.26;101587.28;5040382;28;20056;-58
2022/08/26 08:56:35;;;;;;;6.20;2.15;;;;;;;21.76;72.67;101586.41;5046962;28;20071;-59
2022/08/26 08:59:19;;;;;;;5.25;1.83;;;;;;;21.80;72.13;101590.78;5040502;28;20064;-59
2022/08/26 09:01:51;;;;;;;6.25;1.90;;;;;;;21.81;72.27;101593.41;5044434;28;20452;-59
2022/08/26 09:04:53;;;;;;;6.20;1.88;;;;;;;21.82;71.61;101592.50;5047616;28;20090;-60
2022/08/26 09:07:24;;;;;;;7.10;1.98;;;;;;;21.81;71.02;101596.06;5044000;28;20040;-59
2022/08/26 09:10:16;;;;;;;6.43;1.80;;;;;;;21.81;71.37;101603.13;5044572;28;20050;-59
2022/08/26 09:12:41;;;;;;;6.95;2.20;;;;;;;21.81;70.82;101592.50;5049009;28;20040;-58
2022/08/26 09:15:14;;;;;;;5.60;2.03;;;;;;;21.83;70.55;101596.91;5047315;28;20072;-57
2022/08/26 09:18:06;;;;;;;6.07;1.65;;;;;;;21.86;70.45;101596.88;5043084;28;20123;-57
2022/08/26 09:20:37;;;;;;;7.85;1.80;;;;;;;21.90;71.00;101600.41;5043866;28;20024;-57
2022/08/26 09:23:03;;;;;;;6.75;2.40;;;;;;;21.94;70.55;101598.56;5042879;28;20034;-57
2022/08/26 09:25:28;;;;;;;6.15;2.70;;;;;;;21.95;70.32;101600.34;5039900;28;20025;-58
2022/08/26 09:27:54;;;;;;;7.78;3.40;;;;;;;21.95;71.04;101598.53;5049305;28;20438;-57
2022/08/26 09:30:25;;;;;;;22.45;20.23;;;;;;;21.96;71.01;101602.09;5049537;28;20036;-58
2022/08/26 09:33:08;;;;;;;7.72;2.83;;;;;;;21.99;71.37;101597.63;5049723;28;20552;-58
2022/08/26 09:35:40;;;;;;;8.07;2.63;;;;;;;22.00;70.92;101603.78;5050273;28;20071;-56
2022/08/26 09:38:31;;;;;;;6.78;1.92;;;;;;;22.00;70.27;101606.44;5052267;28;20024;-56
2022/08/26 09:41:03;;;;;;;12.57;2.92;;;;;;;22.01;69.99;101609.09;5049102;28;20094;-56
2022/08/26 09:43:29;;;;;;;6.65;1.77;;;;;;;22.03;70.50;101612.63;5052747;28;20060;-56
2022/08/26 09:46:12;;;;;;;4.50;1.88;;;;;;;22.04;70.04;101617.03;5051749;28;20032;-56
2022/08/26 09:48:39;;;;;;;5.43;1.65;;;;;;;22.05;69.94;101613.47;5032996;28;20077;-56
2022/08/26 09:51:25;;;;;;;8.05;2.08;;;;;;;22.06;69.58;101615.22;5021774;28;20057;-56
2022/08/26 09:53:53;;;;;;;7.05;1.88;;;;;;;22.09;69.74;101608.09;5051131;28;20020;-56
2022/08/26 09:56:45;;;;;;;6.72;1.60;;;;;;;22.10;69.83;101607.22;5053486;28;20029;-57
2022/08/26 09:59:10;;;;;;;8.35;2.20;;;;;;;22.12;69.94;101613.41;5051552;28;20515;-57
2022/08/26 10:01:40;;;;;;;5.18;2.00;;;;;;;22.11;69.89;101614.31;5052095;28;20060;-57
2022/08/26 10:04:25;;;;;;;8.70;2.42;;;;;;;22.12;69.65;101611.63;5048605;28;20120;-56
2022/08/26 10:06:57;;;;;;;6.70;2.08;;;;;;;22.09;69.62;101618.72;5042550;28;20036;-58
2022/08/26 10:09:24;;;;;;;5.85;1.90;;;;;;;22.06;69.63;101611.72;5045607;28;20520;-60
2022/08/26 10:11:54;;;;;;;6.75;1.77;;;;;;;22.05;70.29;101618.78;5041134;28;20078;-61
2022/08/26 10:14:31;;;;;;;5.68;1.63;;;;;;;22.04;69.76;101617.03;5039657;28;20068;-60
2022/08/26 10:17:15;;;;;;;6.35;1.80;;;;;;;22.02;69.46;101616.16;5043509;28;20477;-59
2022/08/26 10:19:50;;;;;;;9.35;2.22;;;;;;;22.00;69.56;101620.63;5040616;28;20118;-59
2022/08/26 10:22:31;;;;;;;8.93;2.10;;;;;;;22.01;69.15;101626.78;5040347;28;20090;-59
2022/08/26 10:25:00;;;;;;;6.55;1.85;;;;;;;21.98;68.96;101617.09;5038824;28;20108;-58
2022/08/26 10:27:47;;;;;;;7.35;2.03;;;;;;;22.00;69.06;101617.97;5041210;28;20025;-59
2022/08/26 10:30:17;;;;;;;6.75;1.80;;;;;;;21.99;69.24;101617.97;5042259;28;20029;-59
2022/08/26 10:32:50;;;;;;;9.10;2.00;;;;;;;21.97;69.38;101615.34;5046630;28;20074;-60
2022/08/26 10:35:18;;;;;;;7.00;1.95;;;;;;;21.95;68.76;101610.94;5043721;28;20078;-59
2022/08/26 10:38:13;;;;;;;9.80;2.03;;;;;;;21.95;69.13;101606.50;5024917;28;20073;-59
2022/08/26 10:41:01;;;;;;;6.10;1.80;;;;;;;21.96;69.47;101613.59;5042023;28;20049;-59
2022/08/26 10:43:32;;;;;;;9.70;1.98;;;;;;;21.95;68.88;101614.47;5023420;28;20072;-60
2022/08/26 10:46:09;;;;;;;7.65;1.70;;;;;;;21.96;68.88;101613.59;5051606;28;20025;-60
2022/08/26 10:48:47;;;;;;;6.25;1.80;;;;;;;21.96;68.91;101600.31;5048773;28;20244;-59
2022/08/26 10:51:15;;;;;;;9.13;2.22;;;;;;;21.97;68.88;101606.50;5024951;28;20396;-59
2022/08/26 10:54:01;;;;;;;7.28;1.95;;;;;;;21.99;68.97;101605.56;5052099;28;20021;-59
2022/08/26 10:56:54;;;;;;;7.05;1.75;;;;;;;21.96;69.07;101608.28;5049101;28;20514;-59
2022/08/26 10:59:50;;;;;;;6.68;1.80;;;;;;;21.98;69.24;101611.78;5045282;28;20100;-59
2022/08/26 11:02:39;;;;;;;6.15;2.00;;;;;;;21.98;68.58;101610.91;5051208;28;20031;-60
2022/08/26 11:05:15;;;;;;;5.93;2.00;;;;;;;21.93;68.35;101616.28;5041443;28;20056;-59
2022/08/26 11:07:44;;;;;;;5.95;1.70;;;;;;;21.93;68.61;101615.38;5052102;28;20024;-59
2022/08/26 11:10:19;;;;;;;6.30;1.73;;;;;;;21.92;68.94;101617.16;5049258;28;20033;-59
2022/08/26 11:12:44;;;;;;;4.57;1.67;;;;;;;21.92;69.55;101619.81;5051904;28;20032;-59
2022/08/26 11:15:12;;;;;;;5.35;1.67;;;;;;;21.91;68.80;101618.06;5051111;28;20577;-60
2022/08/26 11:18:02;;;;;;;6.93;1.70;;;;;;;21.92;69.29;101609.19;5041863;28;20548;-59
2022/08/26 11:20:35;;;;;;;6.35;1.67;;;;;;;21.92;69.76;101611.00;5048103;28;20372;-59
2022/08/26 11:23:15;;;;;;;8.20;1.65;;;;;;;21.91;69.21;101615.41;5046952;28;20051;-60
2022/08/26 11:26:08;;;;;;;7.68;1.80;;;;;;;21.92;69.66;101611.84;5046339;28;20043;-59
2022/08/26 11:28:40;;;;;;;5.13;1.50;;;;;;;21.91;69.34;101610.09;5040880;28;20104;-59
2022/08/26 11:31:36;;;;;;;5.72;1.67;;;;;;;21.92;69.59;101606.53;5051383;28;20037;-59
2022/08/26 11:34:05;;;;;;;5.80;1.48;;;;;;;21.94;69.28;101612.72;5039278;28;20024;-59